sensor_id;sensor_type;location;lat;lon;timestamp;P1;durP1;ratioP1;P2;durP2;ratioP2
74630;SDS011;63138;55.082;38.804;2023-04-28T00:01:05;10.30;;;7.60;;
74630;SDS011;63138;55.082;38.804;2023-04-28T00:03:31;9.73;;;7.20;;
74630;SDS011;63138;55.082;38.804;2023-04-28T00:05:56;10.70;;;7.57;;
74630;SDS011;63138;55.082;38.804;2023-04-28T00:08:22;13.50;;;7.70;;
74630;SDS011;63138;55.082;38.804;2023-04-28T00:10:51;11.65;;;8.15;;
74630;SDS011;63138;55.082;38.804;2023-04-28T00:13:17;11.88;;;7.90;;
74630;SDS011;63138;55.082;38.804;2023-04-28T00:15:44;11.73;;;7.82;;
74630;SDS011;63138;55.082;38.804;2023-04-28T00:18:09;14.77;;;8.97;;
74630;SDS011;63138;55.082;38.804;2023-04-28T00:20:35;9.75;;;7.50;;
74630;SDS011;63138;55.082;38.804;2023-04-28T00:23:01;9.20;;;6.67;;
74630;SDS011;63138;55.082;38.804;2023-04-28T00:25:27;10.77;;;6.80;;
74630;SDS011;63138;55.082;38.804;2023-04-28T00:27:53;9.35;;;6.72;;
74630;SDS011;63138;55.082;38.804;2023-04-28T00:30:18;11.87;;;7.20;;
74630;SDS011;63138;55.082;38.804;2023-04-28T00:32:45;12.60;;;7.53;;
74630;SDS011;63138;55.082;38.804;2023-04-28T00:35:11;11.30;;;7.38;;
74630;SDS011;63138;55.082;38.804;2023-04-28T00:37:37;12.52;;;8.43;;
74630;SDS011;63138;55.082;38.804;2023-04-28T00:40:04;15.05;;;9.48;;
74630;SDS011;63138;55.082;38.804;2023-04-28T00:42:31;17.10;;;10.97;;
74630;SDS011;63138;55.082;38.804;2023-04-28T00:44:57;21.77;;;12.40;;
74630;SDS011;63138;55.082;38.804;2023-04-28T00:47:24;19.50;;;10.95;;
74630;SDS011;63138;55.082;38.804;2023-04-28T00:49:50;14.20;;;9.48;;
74630;SDS011;63138;55.082;38.804;2023-04-28T00:52:17;15.77;;;8.93;;
74630;SDS011;63138;55.082;38.804;2023-04-28T00:54:44;18.65;;;9.90;;
74630;SDS011;63138;55.082;38.804;2023-04-28T00:57:12;20.15;;;10.30;;
74630;SDS011;63138;55.082;38.804;2023-04-28T00:59:56;12.73;;;8.20;;
74630;SDS011;63138;55.082;38.804;2023-04-28T01:02:22;15.83;;;10.00;;
74630;SDS011;63138;55.082;38.804;2023-04-28T01:04:49;17.02;;;9.75;;
74630;SDS011;63138;55.082;38.804;2023-04-28T01:07:15;17.13;;;10.23;;
74630;SDS011;63138;55.082;38.804;2023-04-28T01:10:00;13.85;;;8.25;;
74630;SDS011;63138;55.082;38.804;2023-04-28T01:12:31;14.63;;;9.95;;
74630;SDS011;63138;55.082;38.804;2023-04-28T01:15:34;13.90;;;8.57;;
74630;SDS011;63138;55.082;38.804;2023-04-28T01:18:00;15.50;;;10.40;;
74630;SDS011;63138;55.082;38.804;2023-04-28T01:20:27;16.13;;;7.53;;
74630;SDS011;63138;55.082;38.804;2023-04-28T01:22:53;12.20;;;8.48;;
74630;SDS011;63138;55.082;38.804;2023-04-28T01:25:19;11.13;;;8.00;;
74630;SDS011;63138;55.082;38.804;2023-04-28T01:28:03;13.25;;;8.45;;
74630;SDS011;63138;55.082;38.804;2023-04-28T01:30:29;16.33;;;9.75;;
74630;SDS011;63138;55.082;38.804;2023-04-28T01:32:55;17.33;;;9.83;;
74630;SDS011;63138;55.082;38.804;2023-04-28T01:35:40;16.88;;;8.75;;
74630;SDS011;63138;55.082;38.804;2023-04-28T01:40:52;18.77;;;8.15;;
74630;SDS011;63138;55.082;38.804;2023-04-28T01:43:19;18.87;;;9.37;;
74630;SDS011;63138;55.082;38.804;2023-04-28T01:46:03;15.52;;;9.25;;
74630;SDS011;63138;55.082;38.804;2023-04-28T01:48:30;18.58;;;9.63;;
74630;SDS011;63138;55.082;38.804;2023-04-28T01:51:15;18.33;;;9.95;;
74630;SDS011;63138;55.082;38.804;2023-04-28T01:53:41;15.38;;;9.82;;
74630;SDS011;63138;55.082;38.804;2023-04-28T01:56:25;17.07;;;9.97;;
74630;SDS011;63138;55.082;38.804;2023-04-28T01:58:54;25.45;;;12.52;;
74630;SDS011;63138;55.082;38.804;2023-04-28T02:01:21;22.73;;;12.68;;
74630;SDS011;63138;55.082;38.804;2023-04-28T02:03:47;27.35;;;12.80;;
74630;SDS011;63138;55.082;38.804;2023-04-28T02:06:13;22.67;;;14.23;;
74630;SDS011;63138;55.082;38.804;2023-04-28T02:08:39;17.30;;;10.70;;
74630;SDS011;63138;55.082;38.804;2023-04-28T02:11:05;19.00;;;11.38;;
74630;SDS011;63138;55.082;38.804;2023-04-28T02:13:50;14.73;;;10.02;;
74630;SDS011;63138;55.082;38.804;2023-04-28T02:16:36;19.15;;;11.30;;
74630;SDS011;63138;55.082;38.804;2023-04-28T02:19:01;19.40;;;11.57;;
74630;SDS011;63138;55.082;38.804;2023-04-28T02:21:46;16.88;;;10.85;;
74630;SDS011;63138;55.082;38.804;2023-04-28T02:24:12;19.65;;;11.07;;
74630;SDS011;63138;55.082;38.804;2023-04-28T02:26:56;19.92;;;9.82;;
74630;SDS011;63138;55.082;38.804;2023-04-28T02:29:26;20.38;;;10.88;;
74630;SDS011;63138;55.082;38.804;2023-04-28T02:31:52;14.57;;;7.87;;
74630;SDS011;63138;55.082;38.804;2023-04-28T02:34:18;16.42;;;8.40;;
74630;SDS011;63138;55.082;38.804;2023-04-28T02:36:44;17.63;;;10.15;;
74630;SDS011;63138;55.082;38.804;2023-04-28T02:39:10;22.33;;;11.63;;
74630;SDS011;63138;55.082;38.804;2023-04-28T02:41:36;34.42;;;12.77;;
74630;SDS011;63138;55.082;38.804;2023-04-28T02:44:01;29.50;;;12.95;;
74630;SDS011;63138;55.082;38.804;2023-04-28T02:46:28;23.47;;;11.80;;
74630;SDS011;63138;55.082;38.804;2023-04-28T02:48:53;20.75;;;9.52;;
74630;SDS011;63138;55.082;38.804;2023-04-28T02:51:19;13.93;;;7.05;;
74630;SDS011;63138;55.082;38.804;2023-04-28T02:53:45;9.77;;;7.87;;
74630;SDS011;63138;55.082;38.804;2023-04-28T02:56:11;14.52;;;7.68;;
74630;SDS011;63138;55.082;38.804;2023-04-28T02:58:37;13.30;;;7.78;;
74630;SDS011;63138;55.082;38.804;2023-04-28T03:01:03;9.60;;;6.63;;
74630;SDS011;63138;55.082;38.804;2023-04-28T03:03:29;16.70;;;7.85;;
74630;SDS011;63138;55.082;38.804;2023-04-28T03:05:55;16.75;;;7.65;;
74630;SDS011;63138;55.082;38.804;2023-04-28T03:08:21;11.82;;;7.10;;
74630;SDS011;63138;55.082;38.804;2023-04-28T03:10:47;10.90;;;8.60;;
74630;SDS011;63138;55.082;38.804;2023-04-28T03:13:13;12.38;;;7.43;;
74630;SDS011;63138;55.082;38.804;2023-04-28T03:15:41;12.07;;;6.78;;
74630;SDS011;63138;55.082;38.804;2023-04-28T03:18:07;11.55;;;7.80;;
74630;SDS011;63138;55.082;38.804;2023-04-28T03:20:32;11.43;;;7.20;;
74630;SDS011;63138;55.082;38.804;2023-04-28T03:22:58;9.38;;;6.53;;
74630;SDS011;63138;55.082;38.804;2023-04-28T03:25:24;14.02;;;7.90;;
74630;SDS011;63138;55.082;38.804;2023-04-28T03:27:51;12.50;;;6.40;;
74630;SDS011;63138;55.082;38.804;2023-04-28T03:30:17;9.87;;;6.87;;
74630;SDS011;63138;55.082;38.804;2023-04-28T03:32:43;8.82;;;6.82;;
74630;SDS011;63138;55.082;38.804;2023-04-28T03:35:08;14.02;;;7.25;;
74630;SDS011;63138;55.082;38.804;2023-04-28T03:37:36;12.60;;;7.82;;
74630;SDS011;63138;55.082;38.804;2023-04-28T03:40:03;13.83;;;8.27;;
74630;SDS011;63138;55.082;38.804;2023-04-28T03:42:41;14.45;;;7.97;;
74630;SDS011;63138;55.082;38.804;2023-04-28T03:45:10;11.50;;;7.55;;
74630;SDS011;63138;55.082;38.804;2023-04-28T03:47:36;12.68;;;7.63;;
74630;SDS011;63138;55.082;38.804;2023-04-28T03:50:02;10.27;;;6.97;;
74630;SDS011;63138;55.082;38.804;2023-04-28T03:52:30;9.60;;;6.90;;
74630;SDS011;63138;55.082;38.804;2023-04-28T03:54:56;10.73;;;7.28;;
74630;SDS011;63138;55.082;38.804;2023-04-28T03:57:22;11.43;;;7.60;;
74630;SDS011;63138;55.082;38.804;2023-04-28T04:02:59;11.50;;;6.88;;
74630;SDS011;63138;55.082;38.804;2023-04-28T04:05:25;15.50;;;6.70;;
74630;SDS011;63138;55.082;38.804;2023-04-28T04:07:51;12.15;;;7.20;;
74630;SDS011;63138;55.082;38.804;2023-04-28T04:10:35;15.80;;;7.82;;
74630;SDS011;63138;55.082;38.804;2023-04-28T04:13:01;10.93;;;7.67;;
74630;SDS011;63138;55.082;38.804;2023-04-28T04:15:27;10.10;;;6.43;;
74630;SDS011;63138;55.082;38.804;2023-04-28T04:17:53;11.25;;;6.85;;
74630;SDS011;63138;55.082;38.804;2023-04-28T04:21:02;11.27;;;7.68;;
74630;SDS011;63138;55.082;38.804;2023-04-28T04:23:28;12.63;;;7.30;;
74630;SDS011;63138;55.082;38.804;2023-04-28T04:25:54;15.52;;;7.50;;
74630;SDS011;63138;55.082;38.804;2023-04-28T04:28:21;18.23;;;7.57;;
74630;SDS011;63138;55.082;38.804;2023-04-28T04:30:47;11.82;;;7.38;;
74630;SDS011;63138;55.082;38.804;2023-04-28T04:33:13;13.85;;;6.90;;
74630;SDS011;63138;55.082;38.804;2023-04-28T04:35:39;10.47;;;6.60;;
74630;SDS011;63138;55.082;38.804;2023-04-28T04:38:05;12.68;;;7.50;;
74630;SDS011;63138;55.082;38.804;2023-04-28T04:40:32;11.95;;;6.82;;
74630;SDS011;63138;55.082;38.804;2023-04-28T04:42:58;15.15;;;6.53;;
74630;SDS011;63138;55.082;38.804;2023-04-28T04:45:26;20.27;;;7.13;;
74630;SDS011;63138;55.082;38.804;2023-04-28T04:47:52;12.03;;;6.30;;
74630;SDS011;63138;55.082;38.804;2023-04-28T04:50:37;10.10;;;6.53;;
74630;SDS011;63138;55.082;38.804;2023-04-28T04:53:04;16.23;;;7.32;;
74630;SDS011;63138;55.082;38.804;2023-04-28T04:55:31;13.48;;;7.30;;
74630;SDS011;63138;55.082;38.804;2023-04-28T04:57:57;14.95;;;7.72;;
74630;SDS011;63138;55.082;38.804;2023-04-28T05:00:49;11.50;;;6.90;;
74630;SDS011;63138;55.082;38.804;2023-04-28T05:03:15;10.32;;;7.07;;
74630;SDS011;63138;55.082;38.804;2023-04-28T05:05:41;11.57;;;6.97;;
74630;SDS011;63138;55.082;38.804;2023-04-28T05:08:20;11.05;;;6.28;;
74630;SDS011;63138;55.082;38.804;2023-04-28T05:10:46;8.82;;;5.97;;
74630;SDS011;63138;55.082;38.804;2023-04-28T05:13:30;7.90;;;5.37;;
74630;SDS011;63138;55.082;38.804;2023-04-28T05:16:33;10.02;;;6.32;;
74630;SDS011;63138;55.082;38.804;2023-04-28T05:19:06;11.85;;;6.65;;
74630;SDS011;63138;55.082;38.804;2023-04-28T05:21:50;8.10;;;5.63;;
74630;SDS011;63138;55.082;38.804;2023-04-28T05:24:22;8.98;;;6.55;;
74630;SDS011;63138;55.082;38.804;2023-04-28T05:26:50;9.43;;;6.00;;
74630;SDS011;63138;55.082;38.804;2023-04-28T05:29:17;9.75;;;6.20;;
74630;SDS011;63138;55.082;38.804;2023-04-28T05:31:43;10.38;;;5.07;;
74630;SDS011;63138;55.082;38.804;2023-04-28T05:34:09;7.90;;;5.43;;
74630;SDS011;63138;55.082;38.804;2023-04-28T05:36:35;10.38;;;5.60;;
74630;SDS011;63138;55.082;38.804;2023-04-28T05:39:02;9.50;;;5.70;;
74630;SDS011;63138;55.082;38.804;2023-04-28T05:41:28;9.27;;;5.65;;
74630;SDS011;63138;55.082;38.804;2023-04-28T05:43:54;8.30;;;6.20;;
74630;SDS011;63138;55.082;38.804;2023-04-28T05:46:20;8.10;;;5.50;;
74630;SDS011;63138;55.082;38.804;2023-04-28T05:48:46;11.40;;;6.20;;
74630;SDS011;63138;55.082;38.804;2023-04-28T05:51:13;11.60;;;5.97;;
74630;SDS011;63138;55.082;38.804;2023-04-28T05:53:39;12.67;;;7.23;;
74630;SDS011;63138;55.082;38.804;2023-04-28T05:56:04;12.20;;;6.82;;
74630;SDS011;63138;55.082;38.804;2023-04-28T05:58:31;10.23;;;6.82;;
74630;SDS011;63138;55.082;38.804;2023-04-28T06:00:57;12.80;;;6.80;;
74630;SDS011;63138;55.082;38.804;2023-04-28T06:03:23;9.00;;;6.77;;
74630;SDS011;63138;55.082;38.804;2023-04-28T06:05:51;9.45;;;5.22;;
74630;SDS011;63138;55.082;38.804;2023-04-28T06:08:18;7.75;;;5.22;;
74630;SDS011;63138;55.082;38.804;2023-04-28T06:10:43;8.27;;;6.78;;
74630;SDS011;63138;55.082;38.804;2023-04-28T06:13:10;8.93;;;6.97;;
74630;SDS011;63138;55.082;38.804;2023-04-28T06:15:36;10.73;;;7.03;;
74630;SDS011;63138;55.082;38.804;2023-04-28T06:18:02;7.82;;;6.15;;
74630;SDS011;63138;55.082;38.804;2023-04-28T06:20:30;9.52;;;5.85;;
74630;SDS011;63138;55.082;38.804;2023-04-28T06:22:56;10.77;;;6.50;;
74630;SDS011;63138;55.082;38.804;2023-04-28T06:25:22;6.43;;;5.15;;
74630;SDS011;63138;55.082;38.804;2023-04-28T06:27:49;7.80;;;5.00;;
74630;SDS011;63138;55.082;38.804;2023-04-28T06:30:25;7.85;;;5.22;;
74630;SDS011;63138;55.082;38.804;2023-04-28T06:32:53;11.57;;;5.87;;
74630;SDS011;63138;55.082;38.804;2023-04-28T06:35:22;6.55;;;5.38;;
74630;SDS011;63138;55.082;38.804;2023-04-28T06:37:48;6.45;;;5.07;;
74630;SDS011;63138;55.082;38.804;2023-04-28T06:40:14;9.18;;;4.55;;
74630;SDS011;63138;55.082;38.804;2023-04-28T06:42:45;7.55;;;4.32;;
74630;SDS011;63138;55.082;38.804;2023-04-28T06:45:18;8.10;;;4.77;;
74630;SDS011;63138;55.082;38.804;2023-04-28T06:47:44;5.07;;;3.00;;
74630;SDS011;63138;55.082;38.804;2023-04-28T06:50:10;8.88;;;4.22;;
74630;SDS011;63138;55.082;38.804;2023-04-28T06:52:36;6.88;;;4.03;;
74630;SDS011;63138;55.082;38.804;2023-04-28T06:55:04;10.10;;;5.30;;
74630;SDS011;63138;55.082;38.804;2023-04-28T06:57:31;7.88;;;4.20;;
74630;SDS011;63138;55.082;38.804;2023-04-28T06:59:57;4.88;;;3.47;;
74630;SDS011;63138;55.082;38.804;2023-04-28T07:02:23;9.15;;;5.32;;
74630;SDS011;63138;55.082;38.804;2023-04-28T07:04:49;6.30;;;5.57;;
74630;SDS011;63138;55.082;38.804;2023-04-28T07:07:15;8.80;;;5.65;;
74630;SDS011;63138;55.082;38.804;2023-04-28T07:09:41;15.30;;;6.28;;
74630;SDS011;63138;55.082;38.804;2023-04-28T07:12:07;8.10;;;5.90;;
74630;SDS011;63138;55.082;38.804;2023-04-28T07:14:33;8.83;;;5.43;;
74630;SDS011;63138;55.082;38.804;2023-04-28T07:16:59;6.68;;;5.38;;
74630;SDS011;63138;55.082;38.804;2023-04-28T07:19:25;5.75;;;5.15;;
74630;SDS011;63138;55.082;38.804;2023-04-28T07:21:51;7.17;;;5.00;;
74630;SDS011;63138;55.082;38.804;2023-04-28T07:24:17;7.30;;;6.07;;
74630;SDS011;63138;55.082;38.804;2023-04-28T07:26:42;6.20;;;4.80;;
74630;SDS011;63138;55.082;38.804;2023-04-28T07:31:59;6.80;;;4.90;;
74630;SDS011;63138;55.082;38.804;2023-04-28T07:34:26;9.18;;;5.68;;
74630;SDS011;63138;55.082;38.804;2023-04-28T07:37:11;5.47;;;4.82;;
74630;SDS011;63138;55.082;38.804;2023-04-28T07:39:37;6.40;;;4.70;;
74630;SDS011;63138;55.082;38.804;2023-04-28T07:42:23;5.30;;;3.83;;
74630;SDS011;63138;55.082;38.804;2023-04-28T07:44:50;5.75;;;3.92;;
74630;SDS011;63138;55.082;38.804;2023-04-28T07:47:16;9.55;;;4.90;;
74630;SDS011;63138;55.082;38.804;2023-04-28T07:50:01;6.43;;;4.43;;
74630;SDS011;63138;55.082;38.804;2023-04-28T07:52:30;6.50;;;4.00;;
74630;SDS011;63138;55.082;38.804;2023-04-28T07:55:14;6.85;;;4.13;;
74630;SDS011;63138;55.082;38.804;2023-04-28T07:57:40;5.90;;;3.78;;
74630;SDS011;63138;55.082;38.804;2023-04-28T08:00:08;5.67;;;3.20;;
74630;SDS011;63138;55.082;38.804;2023-04-28T08:02:52;5.32;;;3.95;;
74630;SDS011;63138;55.082;38.804;2023-04-28T08:05:18;5.18;;;3.55;;
74630;SDS011;63138;55.082;38.804;2023-04-28T08:07:44;5.20;;;3.90;;
74630;SDS011;63138;55.082;38.804;2023-04-28T08:10:10;4.93;;;3.77;;
74630;SDS011;63138;55.082;38.804;2023-04-28T08:12:37;4.82;;;3.33;;
74630;SDS011;63138;55.082;38.804;2023-04-28T08:15:03;4.25;;;3.25;;
74630;SDS011;63138;55.082;38.804;2023-04-28T08:17:32;4.90;;;3.50;;
74630;SDS011;63138;55.082;38.804;2023-04-28T08:19:57;6.93;;;4.45;;
74630;SDS011;63138;55.082;38.804;2023-04-28T08:22:23;8.67;;;4.60;;
74630;SDS011;63138;55.082;38.804;2023-04-28T08:24:49;5.53;;;4.13;;
74630;SDS011;63138;55.082;38.804;2023-04-28T08:27:15;5.90;;;3.60;;
74630;SDS011;63138;55.082;38.804;2023-04-28T08:29:41;4.80;;;3.42;;
74630;SDS011;63138;55.082;38.804;2023-04-28T08:32:07;4.68;;;3.90;;
74630;SDS011;63138;55.082;38.804;2023-04-28T08:34:32;5.27;;;3.27;;
74630;SDS011;63138;55.082;38.804;2023-04-28T08:36:58;5.78;;;4.57;;
74630;SDS011;63138;55.082;38.804;2023-04-28T08:39:25;5.32;;;3.42;;
74630;SDS011;63138;55.082;38.804;2023-04-28T08:41:52;4.85;;;3.50;;
74630;SDS011;63138;55.082;38.804;2023-04-28T08:44:18;5.00;;;3.17;;
74630;SDS011;63138;55.082;38.804;2023-04-28T08:46:44;4.28;;;3.10;;
74630;SDS011;63138;55.082;38.804;2023-04-28T08:49:16;4.40;;;3.30;;
74630;SDS011;63138;55.082;38.804;2023-04-28T08:52:10;8.15;;;4.13;;
74630;SDS011;63138;55.082;38.804;2023-04-28T08:54:34;4.28;;;3.08;;
74630;SDS011;63138;55.082;38.804;2023-04-28T08:57:02;5.40;;;2.80;;
74630;SDS011;63138;55.082;38.804;2023-04-28T08:59:29;4.97;;;3.10;;
74630;SDS011;63138;55.082;38.804;2023-04-28T09:01:55;4.88;;;3.22;;
74630;SDS011;63138;55.082;38.804;2023-04-28T09:04:21;8.68;;;3.78;;
74630;SDS011;63138;55.082;38.804;2023-04-28T09:06:47;6.22;;;3.50;;
74630;SDS011;63138;55.082;38.804;2023-04-28T09:09:29;6.20;;;3.73;;
74630;SDS011;63138;55.082;38.804;2023-04-28T09:12:00;4.70;;;3.60;;
74630;SDS011;63138;55.082;38.804;2023-04-28T09:14:28;5.82;;;4.55;;
74630;SDS011;63138;55.082;38.804;2023-04-28T09:16:57;6.40;;;4.25;;
74630;SDS011;63138;55.082;38.804;2023-04-28T09:19:23;5.23;;;4.20;;
74630;SDS011;63138;55.082;38.804;2023-04-28T09:21:57;5.45;;;4.18;;
74630;SDS011;63138;55.082;38.804;2023-04-28T09:24:33;5.90;;;3.97;;
74630;SDS011;63138;55.082;38.804;2023-04-28T09:27:09;6.40;;;4.20;;
74630;SDS011;63138;55.082;38.804;2023-04-28T09:29:37;4.78;;;3.42;;
74630;SDS011;63138;55.082;38.804;2023-04-28T09:32:18;6.13;;;4.00;;
74630;SDS011;63138;55.082;38.804;2023-04-28T09:34:51;7.72;;;4.15;;
74630;SDS011;63138;55.082;38.804;2023-04-28T09:37:23;10.00;;;4.63;;
74630;SDS011;63138;55.082;38.804;2023-04-28T09:39:52;5.65;;;3.72;;
74630;SDS011;63138;55.082;38.804;2023-04-28T09:42:35;5.40;;;3.55;;
74630;SDS011;63138;55.082;38.804;2023-04-28T09:45:12;5.57;;;4.20;;
74630;SDS011;63138;55.082;38.804;2023-04-28T09:47:43;5.90;;;3.70;;
74630;SDS011;63138;55.082;38.804;2023-04-28T09:50:12;7.85;;;4.93;;
74630;SDS011;63138;55.082;38.804;2023-04-28T09:52:39;11.98;;;4.93;;
74630;SDS011;63138;55.082;38.804;2023-04-28T09:55:09;5.72;;;4.53;;
74630;SDS011;63138;55.082;38.804;2023-04-28T09:57:37;6.17;;;4.53;;
74630;SDS011;63138;55.082;38.804;2023-04-28T10:00:06;5.88;;;4.93;;
74630;SDS011;63138;55.082;38.804;2023-04-28T10:02:37;7.03;;;4.88;;
74630;SDS011;63138;55.082;38.804;2023-04-28T10:05:05;9.45;;;4.57;;
74630;SDS011;63138;55.082;38.804;2023-04-28T10:07:33;5.25;;;3.42;;
74630;SDS011;63138;55.082;38.804;2023-04-28T10:10:00;8.03;;;4.60;;
74630;SDS011;63138;55.082;38.804;2023-04-28T10:12:32;6.45;;;4.60;;
74630;SDS011;63138;55.082;38.804;2023-04-28T10:14:59;5.55;;;3.88;;
74630;SDS011;63138;55.082;38.804;2023-04-28T10:17:27;8.27;;;4.32;;
74630;SDS011;63138;55.082;38.804;2023-04-28T10:19:54;9.38;;;4.07;;
74630;SDS011;63138;55.082;38.804;2023-04-28T10:27:44;10.40;;;4.57;;
74630;SDS011;63138;55.082;38.804;2023-04-28T10:30:19;5.18;;;3.22;;
74630;SDS011;63138;55.082;38.804;2023-04-28T10:32:46;6.32;;;4.10;;
74630;SDS011;63138;55.082;38.804;2023-04-28T10:38:16;5.75;;;3.80;;
74630;SDS011;63138;55.082;38.804;2023-04-28T10:40:52;9.57;;;3.90;;
74630;SDS011;63138;55.082;38.804;2023-04-28T10:56:07;6.68;;;4.80;;
74630;SDS011;63138;55.082;38.804;2023-04-28T10:58:33;6.73;;;4.83;;
74630;SDS011;63138;55.082;38.804;2023-04-28T11:08:59;9.23;;;5.32;;
74630;SDS011;63138;55.082;38.804;2023-04-28T11:16:50;12.52;;;7.72;;
74630;SDS011;63138;55.082;38.804;2023-04-28T11:19:24;12.43;;;8.02;;
74630;SDS011;63138;55.082;38.804;2023-04-28T11:21:52;10.60;;;6.67;;
74630;SDS011;63138;55.082;38.804;2023-04-28T11:24:20;11.77;;;8.68;;
74630;SDS011;63138;55.082;38.804;2023-04-28T11:26:47;11.55;;;7.47;;
74630;SDS011;63138;55.082;38.804;2023-04-28T11:29:13;11.27;;;7.95;;
74630;SDS011;63138;55.082;38.804;2023-04-28T11:31:40;10.82;;;6.70;;
74630;SDS011;63138;55.082;38.804;2023-04-28T11:34:17;11.20;;;7.43;;
74630;SDS011;63138;55.082;38.804;2023-04-28T11:36:44;10.02;;;7.20;;
74630;SDS011;63138;55.082;38.804;2023-04-28T11:39:11;9.38;;;6.50;;
74630;SDS011;63138;55.082;38.804;2023-04-28T11:41:38;10.48;;;6.43;;
74630;SDS011;63138;55.082;38.804;2023-04-28T11:44:12;8.77;;;5.70;;
74630;SDS011;63138;55.082;38.804;2023-04-28T11:46:49;8.70;;;5.90;;
74630;SDS011;63138;55.082;38.804;2023-04-28T11:49:21;10.02;;;6.95;;
74630;SDS011;63138;55.082;38.804;2023-04-28T11:51:56;11.70;;;6.47;;
74630;SDS011;63138;55.082;38.804;2023-04-28T11:54:26;8.95;;;5.78;;
74630;SDS011;63138;55.082;38.804;2023-04-28T11:56:53;6.97;;;5.82;;
74630;SDS011;63138;55.082;38.804;2023-04-28T11:59:24;8.67;;;7.43;;
74630;SDS011;63138;55.082;38.804;2023-04-28T12:01:53;10.73;;;7.63;;
74630;SDS011;63138;55.082;38.804;2023-04-28T12:09:26;9.90;;;7.18;;
74630;SDS011;63138;55.082;38.804;2023-04-28T12:12:11;11.33;;;7.00;;
74630;SDS011;63138;55.082;38.804;2023-04-28T12:14:58;9.65;;;7.32;;
74630;SDS011;63138;55.082;38.804;2023-04-28T12:17:27;11.23;;;7.18;;
74630;SDS011;63138;55.082;38.804;2023-04-28T12:19:56;10.00;;;7.45;;
74630;SDS011;63138;55.082;38.804;2023-04-28T12:22:23;7.82;;;6.30;;
74630;SDS011;63138;55.082;38.804;2023-04-28T12:25:03;8.50;;;5.20;;
74630;SDS011;63138;55.082;38.804;2023-04-28T12:27:30;9.48;;;6.20;;
74630;SDS011;63138;55.082;38.804;2023-04-28T12:29:56;7.75;;;5.90;;
74630;SDS011;63138;55.082;38.804;2023-04-28T12:32:39;7.05;;;5.50;;
74630;SDS011;63138;55.082;38.804;2023-04-28T12:35:07;6.95;;;5.05;;
74630;SDS011;63138;55.082;38.804;2023-04-28T12:37:33;6.50;;;5.63;;
74630;SDS011;63138;55.082;38.804;2023-04-28T12:40:00;7.32;;;6.07;;
74630;SDS011;63138;55.082;38.804;2023-04-28T12:42:29;6.53;;;5.60;;
74630;SDS011;63138;55.082;38.804;2023-04-28T12:44:56;8.43;;;5.95;;
74630;SDS011;63138;55.082;38.804;2023-04-28T12:47:22;8.70;;;6.53;;
74630;SDS011;63138;55.082;38.804;2023-04-28T12:49:48;8.13;;;5.80;;
74630;SDS011;63138;55.082;38.804;2023-04-28T12:52:18;10.00;;;6.75;;
74630;SDS011;63138;55.082;38.804;2023-04-28T12:54:45;7.35;;;4.90;;
74630;SDS011;63138;55.082;38.804;2023-04-28T12:57:16;7.63;;;5.55;;
74630;SDS011;63138;55.082;38.804;2023-04-28T12:59:43;6.95;;;4.70;;
74630;SDS011;63138;55.082;38.804;2023-04-28T13:02:12;7.73;;;6.27;;
74630;SDS011;63138;55.082;38.804;2023-04-28T13:04:39;6.00;;;4.75;;
74630;SDS011;63138;55.082;38.804;2023-04-28T13:07:07;7.63;;;5.70;;
74630;SDS011;63138;55.082;38.804;2023-04-28T13:09:33;7.38;;;5.70;;
74630;SDS011;63138;55.082;38.804;2023-04-28T13:11:59;7.47;;;5.70;;
74630;SDS011;63138;55.082;38.804;2023-04-28T13:14:27;7.63;;;6.43;;
74630;SDS011;63138;55.082;38.804;2023-04-28T13:16:53;6.90;;;5.63;;
74630;SDS011;63138;55.082;38.804;2023-04-28T13:19:19;7.78;;;5.53;;
74630;SDS011;63138;55.082;38.804;2023-04-28T13:21:45;8.43;;;5.82;;
74630;SDS011;63138;55.082;38.804;2023-04-28T13:24:38;5.83;;;3.70;;
74630;SDS011;63138;55.082;38.804;2023-04-28T13:27:05;7.13;;;5.35;;
74630;SDS011;63138;55.082;38.804;2023-04-28T13:29:34;8.55;;;5.82;;
74630;SDS011;63138;55.082;38.804;2023-04-28T13:32:01;7.55;;;5.40;;
74630;SDS011;63138;55.082;38.804;2023-04-28T13:34:28;7.45;;;5.47;;
74630;SDS011;63138;55.082;38.804;2023-04-28T13:36:54;8.47;;;5.77;;
74630;SDS011;63138;55.082;38.804;2023-04-28T13:39:20;6.72;;;5.03;;
74630;SDS011;63138;55.082;38.804;2023-04-28T13:41:46;8.80;;;5.65;;
74630;SDS011;63138;55.082;38.804;2023-04-28T13:44:14;12.85;;;5.90;;
74630;SDS011;63138;55.082;38.804;2023-04-28T13:46:40;6.20;;;5.30;;
74630;SDS011;63138;55.082;38.804;2023-04-28T13:49:08;6.68;;;4.50;;
74630;SDS011;63138;55.082;38.804;2023-04-28T13:51:34;7.47;;;5.00;;
74630;SDS011;63138;55.082;38.804;2023-04-28T13:54:02;6.35;;;4.95;;
74630;SDS011;63138;55.082;38.804;2023-04-28T13:56:30;8.48;;;5.80;;
74630;SDS011;63138;55.082;38.804;2023-04-28T13:58:56;6.17;;;5.40;;
74630;SDS011;63138;55.082;38.804;2023-04-28T14:01:22;9.35;;;4.97;;
74630;SDS011;63138;55.082;38.804;2023-04-28T14:03:49;8.00;;;5.15;;
74630;SDS011;63138;55.082;38.804;2023-04-28T14:06:15;6.40;;;4.75;;
74630;SDS011;63138;55.082;38.804;2023-04-28T14:08:42;6.13;;;4.13;;
74630;SDS011;63138;55.082;38.804;2023-04-28T14:11:08;10.65;;;4.50;;
74630;SDS011;63138;55.082;38.804;2023-04-28T14:13:35;6.20;;;4.90;;
74630;SDS011;63138;55.082;38.804;2023-04-28T14:16:01;6.07;;;4.88;;
74630;SDS011;63138;55.082;38.804;2023-04-28T14:18:27;6.03;;;4.30;;
74630;SDS011;63138;55.082;38.804;2023-04-28T14:20:53;4.85;;;3.85;;
74630;SDS011;63138;55.082;38.804;2023-04-28T14:23:20;5.15;;;4.15;;
74630;SDS011;63138;55.082;38.804;2023-04-28T14:25:47;6.28;;;4.85;;
74630;SDS011;63138;55.082;38.804;2023-04-28T14:28:13;6.43;;;4.90;;
74630;SDS011;63138;55.082;38.804;2023-04-28T14:30:39;7.35;;;4.95;;
74630;SDS011;63138;55.082;38.804;2023-04-28T14:33:05;9.23;;;5.50;;
74630;SDS011;63138;55.082;38.804;2023-04-28T14:35:33;8.03;;;5.80;;
74630;SDS011;63138;55.082;38.804;2023-04-28T14:37:59;8.75;;;5.82;;
74630;SDS011;63138;55.082;38.804;2023-04-28T14:40:25;8.45;;;5.45;;
74630;SDS011;63138;55.082;38.804;2023-04-28T14:42:51;6.35;;;4.97;;
74630;SDS011;63138;55.082;38.804;2023-04-28T14:45:18;6.63;;;4.70;;
74630;SDS011;63138;55.082;38.804;2023-04-28T14:47:44;6.63;;;4.65;;
74630;SDS011;63138;55.082;38.804;2023-04-28T14:50:10;6.88;;;5.10;;
74630;SDS011;63138;55.082;38.804;2023-04-28T14:52:36;6.05;;;5.18;;
74630;SDS011;63138;55.082;38.804;2023-04-28T14:55:02;8.95;;;5.45;;
74630;SDS011;63138;55.082;38.804;2023-04-28T14:57:31;7.37;;;4.47;;
74630;SDS011;63138;55.082;38.804;2023-04-28T14:59:59;6.40;;;5.18;;
74630;SDS011;63138;55.082;38.804;2023-04-28T15:02:30;6.63;;;5.18;;
74630;SDS011;63138;55.082;38.804;2023-04-28T15:04:57;7.28;;;5.35;;
74630;SDS011;63138;55.082;38.804;2023-04-28T15:07:23;7.80;;;4.83;;
74630;SDS011;63138;55.082;38.804;2023-04-28T15:09:57;5.63;;;4.63;;
74630;SDS011;63138;55.082;38.804;2023-04-28T15:12:23;6.65;;;4.85;;
74630;SDS011;63138;55.082;38.804;2023-04-28T15:14:50;6.65;;;5.25;;
74630;SDS011;63138;55.082;38.804;2023-04-28T15:17:18;5.75;;;4.65;;
74630;SDS011;63138;55.082;38.804;2023-04-28T15:19:46;7.00;;;4.70;;
74630;SDS011;63138;55.082;38.804;2023-04-28T15:22:12;6.90;;;4.90;;
74630;SDS011;63138;55.082;38.804;2023-04-28T15:24:40;8.95;;;5.85;;
74630;SDS011;63138;55.082;38.804;2023-04-28T15:27:06;6.85;;;5.30;;